sensor_id;sensor_type;location;lat;lon;timestamp;temperature;humidity
72772;SHT30;60894;42.544;1.516;2023-03-05T00:01:56;0.85;54.22
72772;SHT30;60894;42.544;1.516;2023-03-05T00:04:23;0.87;53.89
72772;SHT30;60894;42.544;1.516;2023-03-05T00:06:50;0.89;54.02
72772;SHT30;60894;42.544;1.516;2023-03-05T00:09:17;0.77;53.94
72772;SHT30;60894;42.544;1.516;2023-03-05T00:11:44;0.85;54.09
72772;SHT30;60894;42.544;1.516;2023-03-05T00:14:11;0.87;54.06
72772;SHT30;60894;42.544;1.516;2023-03-05T00:16:38;0.76;54.48
72772;SHT30;60894;42.544;1.516;2023-03-05T00:19:06;0.74;54.03
72772;SHT30;60894;42.544;1.516;2023-03-05T00:21:35;0.74;54.44
72772;SHT30;60894;42.544;1.516;2023-03-05T00:24:05;0.80;55.02
72772;SHT30;60894;42.544;1.516;2023-03-05T00:26:35;0.89;54.24
72772;SHT30;60894;42.544;1.516;2023-03-05T00:29:04;0.99;54.09
72772;SHT30;60894;42.544;1.516;2023-03-05T00:31:33;0.77;54.56
72772;SHT30;60894;42.544;1.516;2023-03-05T00:34:03;0.73;54.69
72772;SHT30;60894;42.544;1.516;2023-03-05T00:36:32;0.61;55.03
72772;SHT30;60894;42.544;1.516;2023-03-05T00:39:00;0.57;54.56
72772;SHT30;60894;42.544;1.516;2023-03-05T00:41:27;0.67;54.62
72772;SHT30;60894;42.544;1.516;2023-03-05T00:43:53;0.78;53.74
72772;SHT30;60894;42.544;1.516;2023-03-05T00:46:20;0.76;53.68
72772;SHT30;60894;42.544;1.516;2023-03-05T00:48:48;0.47;56.05
72772;SHT30;60894;42.544;1.516;2023-03-05T00:51:15;0.57;55.58
72772;SHT30;60894;42.544;1.516;2023-03-05T00:53:43;0.63;55.09
72772;SHT30;60894;42.544;1.516;2023-03-05T00:56:10;0.63;54.67
72772;SHT30;60894;42.544;1.516;2023-03-05T00:58:38;0.54;54.45
72772;SHT30;60894;42.544;1.516;2023-03-05T01:01:05;0.58;55.05
72772;SHT30;60894;42.544;1.516;2023-03-05T01:03:33;0.33;55.79
72772;SHT30;60894;42.544;1.516;2023-03-05T01:06:02;0.35;56.94
72772;SHT30;60894;42.544;1.516;2023-03-05T01:08:30;0.27;56.98
72772;SHT30;60894;42.544;1.516;2023-03-05T01:10:58;0.37;56.27
72772;SHT30;60894;42.544;1.516;2023-03-05T01:13:25;0.36;56.43
72772;SHT30;60894;42.544;1.516;2023-03-05T01:15:52;0.26;56.92
72772;SHT30;60894;42.544;1.516;2023-03-05T01:18:19;0.40;55.74
72772;SHT30;60894;42.544;1.516;2023-03-05T01:20:46;0.46;55.00
72772;SHT30;60894;42.544;1.516;2023-03-05T01:23:14;0.37;54.75
72772;SHT30;60894;42.544;1.516;2023-03-05T01:25:43;0.35;55.16
72772;SHT30;60894;42.544;1.516;2023-03-05T01:28:12;0.35;55.94
72772;SHT30;60894;42.544;1.516;2023-03-05T01:30:38;0.32;55.93
72772;SHT30;60894;42.544;1.516;2023-03-05T01:33:05;0.27;55.90
72772;SHT30;60894;42.544;1.516;2023-03-05T01:35:32;0.19;56.52
72772;SHT30;60894;42.544;1.516;2023-03-05T01:37:59;0.22;56.36
72772;SHT30;60894;42.544;1.516;2023-03-05T01:40:28;0.25;56.11
72772;SHT30;60894;42.544;1.516;2023-03-05T01:42:58;0.17;56.35
72772;SHT30;60894;42.544;1.516;2023-03-05T01:45:29;0.17;56.02
72772;SHT30;60894;42.544;1.516;2023-03-05T01:47:57;0.08;55.71
72772;SHT30;60894;42.544;1.516;2023-03-05T01:50:25;0.03;56.17
72772;SHT30;60894;42.544;1.516;2023-03-05T01:52:56;0.06;56.12
72772;SHT30;60894;42.544;1.516;2023-03-05T01:55:25;0.17;56.12
72772;SHT30;60894;42.544;1.516;2023-03-05T01:57:55;0.19;55.56
72772;SHT30;60894;42.544;1.516;2023-03-05T02:00:28;0.20;55.04
72772;SHT30;60894;42.544;1.516;2023-03-05T02:02:57;0.13;54.99
72772;SHT30;60894;42.544;1.516;2023-03-05T02:05:29;0.15;55.45
72772;SHT30;60894;42.544;1.516;2023-03-05T02:07:57;0.09;55.79
72772;SHT30;60894;42.544;1.516;2023-03-05T02:10:27;-0.06;56.34
72772;SHT30;60894;42.544;1.516;2023-03-05T02:12:57;-0.01;55.74
72772;SHT30;60894;42.544;1.516;2023-03-05T02:15:25;0.03;55.84
72772;SHT30;60894;42.544;1.516;2023-03-05T02:17:54;0.16;54.44
72772;SHT30;60894;42.544;1.516;2023-03-05T02:20:22;0.08;54.53
72772;SHT30;60894;42.544;1.516;2023-03-05T02:22:51;0.09;55.94
72772;SHT30;60894;42.544;1.516;2023-03-05T02:25:20;0.02;56.32
72772;SHT30;60894;42.544;1.516;2023-03-05T02:27:51;0.02;56.20
72772;SHT30;60894;42.544;1.516;2023-03-05T02:30:20;-0.01;56.06
72772;SHT30;60894;42.544;1.516;2023-03-05T02:32:47;-0.01;56.73
72772;SHT30;60894;42.544;1.516;2023-03-05T02:35:14;-0.08;57.39
72772;SHT30;60894;42.544;1.516;2023-03-05T02:37:41;-0.12;57.07
72772;SHT30;60894;42.544;1.516;2023-03-05T02:40:11;-0.08;56.44
72772;SHT30;60894;42.544;1.516;2023-03-05T02:42:39;-0.05;56.72
72772;SHT30;60894;42.544;1.516;2023-03-05T02:45:07;-0.16;57.60
72772;SHT30;60894;42.544;1.516;2023-03-05T02:47:34;-0.14;57.48
72772;SHT30;60894;42.544;1.516;2023-03-05T02:50:02;-0.25;57.42
72772;SHT30;60894;42.544;1.516;2023-03-05T02:52:30;-0.08;56.85
72772;SHT30;60894;42.544;1.516;2023-03-05T02:54:57;-0.08;56.59
72772;SHT30;60894;42.544;1.516;2023-03-05T02:57:26;-0.22;57.16
72772;SHT30;60894;42.544;1.516;2023-03-05T02:59:53;-0.23;56.80
72772;SHT30;60894;42.544;1.516;2023-03-05T03:02:20;-0.35;57.42
72772;SHT30;60894;42.544;1.516;2023-03-05T03:04:47;-0.36;57.54
72772;SHT30;60894;42.544;1.516;2023-03-05T03:07:15;-0.40;57.03
72772;SHT30;60894;42.544;1.516;2023-03-05T03:09:41;-0.25;57.14
72772;SHT30;60894;42.544;1.516;2023-03-05T03:12:09;-0.30;57.11
72772;SHT30;60894;42.544;1.516;2023-03-05T03:14:39;-0.29;56.99
72772;SHT30;60894;42.544;1.516;2023-03-05T03:17:08;-0.16;56.26
72772;SHT30;60894;42.544;1.516;2023-03-05T03:19:36;-0.35;56.28
72772;SHT30;60894;42.544;1.516;2023-03-05T03:22:03;-0.12;55.90
72772;SHT30;60894;42.544;1.516;2023-03-05T03:24:31;-0.28;56.05
72772;SHT30;60894;42.544;1.516;2023-03-05T03:26:59;-0.39;55.76
72772;SHT30;60894;42.544;1.516;2023-03-05T03:29:26;-0.37;56.17
72772;SHT30;60894;42.544;1.516;2023-03-05T03:31:54;-0.43;57.78
72772;SHT30;60894;42.544;1.516;2023-03-05T03:34:22;-0.59;57.98
72772;SHT30;60894;42.544;1.516;2023-03-05T03:36:49;-0.60;56.66
72772;SHT30;60894;42.544;1.516;2023-03-05T03:39:18;-0.56;56.50
72772;SHT30;60894;42.544;1.516;2023-03-05T03:41:46;-0.56;57.00
72772;SHT30;60894;42.544;1.516;2023-03-05T03:44:13;-0.45;57.96
72772;SHT30;60894;42.544;1.516;2023-03-05T03:46:43;-0.50;56.76
72772;SHT30;60894;42.544;1.516;2023-03-05T03:49:14;-0.64;57.70
72772;SHT30;60894;42.544;1.516;2023-03-05T03:51:42;-0.57;57.35
72772;SHT30;60894;42.544;1.516;2023-03-05T03:54:09;-0.60;57.05
72772;SHT30;60894;42.544;1.516;2023-03-05T03:56:35;-0.50;56.38
72772;SHT30;60894;42.544;1.516;2023-03-05T03:59:02;-0.52;56.31
72772;SHT30;60894;42.544;1.516;2023-03-05T04:01:29;-0.56;57.56
72772;SHT30;60894;42.544;1.516;2023-03-05T04:03:56;-0.67;57.56
72772;SHT30;60894;42.544;1.516;2023-03-05T04:06:25;-0.83;57.86
72772;SHT30;60894;42.544;1.516;2023-03-05T04:08:52;-0.74;57.69
72772;SHT30;60894;42.544;1.516;2023-03-05T04:11:19;-0.63;57.45
72772;SHT30;60894;42.544;1.516;2023-03-05T04:13:46;-0.60;57.59
72772;SHT30;60894;42.544;1.516;2023-03-05T04:16:14;-0.62;57.22
72772;SHT30;60894;42.544;1.516;2023-03-05T04:18:41;-0.79;57.11
72772;SHT30;60894;42.544;1.516;2023-03-05T04:21:08;-0.84;57.32
72772;SHT30;60894;42.544;1.516;2023-03-05T04:23:38;-0.84;58.62
72772;SHT30;60894;42.544;1.516;2023-03-05T04:26:05;-0.77;57.25
72772;SHT30;60894;42.544;1.516;2023-03-05T04:28:32;-0.83;57.70
72772;SHT30;60894;42.544;1.516;2023-03-05T04:30:59;-0.80;58.00
72772;SHT30;60894;42.544;1.516;2023-03-05T04:33:26;-0.97;58.58
72772;SHT30;60894;42.544;1.516;2023-03-05T04:35:53;-0.93;57.23
72772;SHT30;60894;42.544;1.516;2023-03-05T04:38:20;-0.83;57.64
72772;SHT30;60894;42.544;1.516;2023-03-05T04:40:48;-0.83;57.35
72772;SHT30;60894;42.544;1.516;2023-03-05T04:43:15;-0.77;56.93
72772;SHT30;60894;42.544;1.516;2023-03-05T04:45:42;-0.86;57.10
72772;SHT30;60894;42.544;1.516;2023-03-05T04:48:10;-0.76;58.32
72772;SHT30;60894;42.544;1.516;2023-03-05T04:50:37;-0.86;58.56
72772;SHT30;60894;42.544;1.516;2023-03-05T04:53:05;-0.87;57.04
72772;SHT30;60894;42.544;1.516;2023-03-05T04:55:32;-0.84;56.16
72772;SHT30;60894;42.544;1.516;2023-03-05T04:58:00;-0.74;56.22
72772;SHT30;60894;42.544;1.516;2023-03-05T05:00:27;-0.74;56.21
72772;SHT30;60894;42.544;1.516;2023-03-05T05:02:54;-0.80;56.10
72772;SHT30;60894;42.544;1.516;2023-03-05T05:05:22;-0.91;57.29
72772;SHT30;60894;42.544;1.516;2023-03-05T05:07:51;-0.90;57.96
72772;SHT30;60894;42.544;1.516;2023-03-05T05:10:19;-1.01;57.88
72772;SHT30;60894;42.544;1.516;2023-03-05T05:12:46;-1.05;57.36
72772;SHT30;60894;42.544;1.516;2023-03-05T05:15:14;-1.19;57.93
72772;SHT30;60894;42.544;1.516;2023-03-05T05:17:41;-1.14;58.50
72772;SHT30;60894;42.544;1.516;2023-03-05T05:20:10;-1.05;58.24
72772;SHT30;60894;42.544;1.516;2023-03-05T05:22:37;-1.11;58.73
72772;SHT30;60894;42.544;1.516;2023-03-05T05:25:05;-1.11;58.42
72772;SHT30;60894;42.544;1.516;2023-03-05T05:27:32;-1.09;58.43
72772;SHT30;60894;42.544;1.516;2023-03-05T05:29:59;-1.09;58.03
72772;SHT30;60894;42.544;1.516;2023-03-05T05:32:27;-0.98;58.04
72772;SHT30;60894;42.544;1.516;2023-03-05T05:34:55;-1.05;57.92
72772;SHT30;60894;42.544;1.516;2023-03-05T05:37:22;-1.17;58.48
72772;SHT30;60894;42.544;1.516;2023-03-05T05:39:49;-1.17;58.05
72772;SHT30;60894;42.544;1.516;2023-03-05T05:42:16;-1.17;57.98
72772;SHT30;60894;42.544;1.516;2023-03-05T05:44:43;-1.28;57.84
72772;SHT30;60894;42.544;1.516;2023-03-05T05:47:11;-1.14;57.76
72772;SHT30;60894;42.544;1.516;2023-03-05T05:49:40;-1.17;58.17
72772;SHT30;60894;42.544;1.516;2023-03-05T05:52:07;-1.32;59.16
72772;SHT30;60894;42.544;1.516;2023-03-05T05:54:34;-1.28;58.74
72772;SHT30;60894;42.544;1.516;2023-03-05T05:57:00;-1.32;58.38
72772;SHT30;60894;42.544;1.516;2023-03-05T05:59:27;-1.32;58.56
72772;SHT30;60894;42.544;1.516;2023-03-05T06:01:54;-1.25;57.64
72772;SHT30;60894;42.544;1.516;2023-03-05T06:04:21;-1.32;58.84
72772;SHT30;60894;42.544;1.516;2023-03-05T06:06:49;-1.38;58.34
72772;SHT30;60894;42.544;1.516;2023-03-05T06:09:16;-1.42;58.28
72772;SHT30;60894;42.544;1.516;2023-03-05T06:11:43;-1.45;59.43
72772;SHT30;60894;42.544;1.516;2023-03-05T06:14:11;-1.52;58.78
72772;SHT30;60894;42.544;1.516;2023-03-05T06:16:38;-1.28;58.60
72772;SHT30;60894;42.544;1.516;2023-03-05T06:19:05;-1.28;57.60
72772;SHT30;60894;42.544;1.516;2023-03-05T06:21:32;-1.35;56.99
72772;SHT30;60894;42.544;1.516;2023-03-05T06:24:02;-1.42;58.52
72772;SHT30;60894;42.544;1.516;2023-03-05T06:26:29;-1.58;58.87
72772;SHT30;60894;42.544;1.516;2023-03-05T06:28:56;-1.49;58.64
72772;SHT30;60894;42.544;1.516;2023-03-05T06:31:25;-1.45;58.43
72772;SHT30;60894;42.544;1.516;2023-03-05T06:33:53;-1.24;57.69
72772;SHT30;60894;42.544;1.516;2023-03-05T06:36:22;-1.28;57.66
72772;SHT30;60894;42.544;1.516;2023-03-05T06:38:49;-1.25;57.74
72772;SHT30;60894;42.544;1.516;2023-03-05T06:41:20;-1.31;57.74
72772;SHT30;60894;42.544;1.516;2023-03-05T06:43:48;-1.39;58.42
72772;SHT30;60894;42.544;1.516;2023-03-05T06:46:16;-1.36;58.45
72772;SHT30;60894;42.544;1.516;2023-03-05T06:48:44;-1.42;57.95
72772;SHT30;60894;42.544;1.516;2023-03-05T06:51:14;-1.42;58.68
72772;SHT30;60894;42.544;1.516;2023-03-05T06:53:42;-1.51;59.57
72772;SHT30;60894;42.544;1.516;2023-03-05T06:56:09;-1.52;59.90
72772;SHT30;60894;42.544;1.516;2023-03-05T06:58:37;-1.42;58.56
72772;SHT30;60894;42.544;1.516;2023-03-05T07:01:04;-1.41;58.30
72772;SHT30;60894;42.544;1.516;2023-03-05T07:03:32;-1.39;58.30
72772;SHT30;60894;42.544;1.516;2023-03-05T07:06:02;-1.38;58.18
72772;SHT30;60894;42.544;1.516;2023-03-05T07:08:29;-1.41;58.65
72772;SHT30;60894;42.544;1.516;2023-03-05T07:10:56;-1.46;58.41
72772;SHT30;60894;42.544;1.516;2023-03-05T07:13:23;-1.45;58.84
72772;SHT30;60894;42.544;1.516;2023-03-05T07:15:51;-1.28;58.50
72772;SHT30;60894;42.544;1.516;2023-03-05T07:18:18;-1.35;58.23
72772;SHT30;60894;42.544;1.516;2023-03-05T07:20:45;-1.25;57.31
72772;SHT30;60894;42.544;1.516;2023-03-05T07:23:12;-1.21;57.96
72772;SHT30;60894;42.544;1.516;2023-03-05T07:25:39;-1.28;58.28
72772;SHT30;60894;42.544;1.516;2023-03-05T07:28:07;-1.27;58.24
72772;SHT30;60894;42.544;1.516;2023-03-05T07:30:35;-1.25;57.71
72772;SHT30;60894;42.544;1.516;2023-03-05T07:33:03;-1.25;57.50
72772;SHT30;60894;42.544;1.516;2023-03-05T07:35:30;-1.30;57.40
72772;SHT30;60894;42.544;1.516;2023-03-05T07:37:57;-1.27;58.15
72772;SHT30;60894;42.544;1.516;2023-03-05T07:40:23;-1.15;57.61
72772;SHT30;60894;42.544;1.516;2023-03-05T07:42:50;-1.18;58.31
72772;SHT30;60894;42.544;1.516;2023-03-05T07:45:18;-1.12;58.32
72772;SHT30;60894;42.544;1.516;2023-03-05T07:47:45;-1.14;57.89
72772;SHT30;60894;42.544;1.516;2023-03-05T07:50:14;-0.95;57.65
72772;SHT30;60894;42.544;1.516;2023-03-05T07:52:40;-0.84;57.30
72772;SHT30;60894;42.544;1.516;2023-03-05T07:55:08;-0.73;56.50
72772;SHT30;60894;42.544;1.516;2023-03-05T07:57:35;-0.48;55.72
72772;SHT30;60894;42.544;1.516;2023-03-05T08:00:04;-0.50;55.70
72772;SHT30;60894;42.544;1.516;2023-03-05T08:02:31;-0.46;55.86
72772;SHT30;60894;42.544;1.516;2023-03-05T08:04:58;-0.36;55.25
72772;SHT30;60894;42.544;1.516;2023-03-05T08:07:26;-0.30;54.23
72772;SHT30;60894;42.544;1.516;2023-03-05T08:09:53;-0.19;54.26
72772;SHT30;60894;42.544;1.516;2023-03-05T08:12:20;-0.19;54.91
72772;SHT30;60894;42.544;1.516;2023-03-05T08:14:47;-0.06;53.56
72772;SHT30;60894;42.544;1.516;2023-03-05T08:17:16;0.02;52.93
72772;SHT30;60894;42.544;1.516;2023-03-05T08:19:43;0.03;52.69
72772;SHT30;60894;42.544;1.516;2023-03-05T08:22:10;0.19;52.77
72772;SHT30;60894;42.544;1.516;2023-03-05T08:24:38;0.32;51.99
72772;SHT30;60894;42.544;1.516;2023-03-05T08:27:05;0.49;50.92
72772;SHT30;60894;42.544;1.516;2023-03-05T08:29:32;0.61;50.33
72772;SHT30;60894;42.544;1.516;2023-03-05T08:31:59;0.60;50.03
72772;SHT30;60894;42.544;1.516;2023-03-05T08:34:26;0.57;48.84
72772;SHT30;60894;42.544;1.516;2023-03-05T08:36:53;0.76;47.66
72772;SHT30;60894;42.544;1.516;2023-03-05T08:39:20;0.88;47.64
72772;SHT30;60894;42.544;1.516;2023-03-05T08:41:48;1.01;46.63
72772;SHT30;60894;42.544;1.516;2023-03-05T08:44:15;1.12;45.56
72772;SHT30;60894;42.544;1.516;2023-03-05T08:46:42;1.28;44.01
72772;SHT30;60894;42.544;1.516;2023-03-05T08:49:09;1.42;42.70
72772;SHT30;60894;42.544;1.516;2023-03-05T08:51:36;1.59;41.84
72772;SHT30;60894;42.544;1.516;2023-03-05T08:54:03;1.70;41.91
72772;SHT30;60894;42.544;1.516;2023-03-05T08:56:32;1.77;42.03
72772;SHT30;60894;42.544;1.516;2023-03-05T08:59:00;1.97;41.80
72772;SHT30;60894;42.544;1.516;2023-03-05T09:01:27;2.17;41.30
72772;SHT30;60894;42.544;1.516;2023-03-05T09:03:55;2.32;41.25
72772;SHT30;60894;42.544;1.516;2023-03-05T09:06:22;2.55;40.46
72772;SHT30;60894;42.544;1.516;2023-03-05T09:08:49;2.75;39.77
72772;SHT30;60894;42.544;1.516;2023-03-05T09:11:16;2.92;37.63
72772;SHT30;60894;42.544;1.516;2023-03-05T09:13:43;3.10;37.45
72772;SHT30;60894;42.544;1.516;2023-03-05T09:16:13;3.31;36.92
72772;SHT30;60894;42.544;1.516;2023-03-05T09:18:40;3.54;37.40
72772;SHT30;60894;42.544;1.516;2023-03-05T09:21:09;3.75;37.41
72772;SHT30;60894;42.544;1.516;2023-03-05T09:23:36;3.98;36.20
72772;SHT30;60894;42.544;1.516;2023-03-05T09:26:04;4.23;36.61
72772;SHT30;60894;42.544;1.516;2023-03-05T09:28:31;4.36;35.52
72772;SHT30;60894;42.544;1.516;2023-03-05T09:31:01;4.60;33.97
72772;SHT30;60894;42.544;1.516;2023-03-05T09:33:30;4.88;33.95
72772;SHT30;60894;42.544;1.516;2023-03-05T09:35:58;5.09;33.82
72772;SHT30;60894;42.544;1.516;2023-03-05T09:38:25;5.42;33.60
72772;SHT30;60894;42.544;1.516;2023-03-05T09:40:57;5.67;33.59
72772;SHT30;60894;42.544;1.516;2023-03-05T09:43:38;5.91;32.38
72772;SHT30;60894;42.544;1.516;2023-03-05T09:46:20;6.10;31.55
72772;SHT30;60894;42.544;1.516;2023-03-05T09:48:53;6.22;31.39
72772;SHT30;60894;42.544;1.516;2023-03-05T09:51:28;6.32;31.06
72772;SHT30;60894;42.544;1.516;2023-03-05T09:54:00;6.61;31.05
72772;SHT30;60894;42.544;1.516;2023-03-05T09:56:30;6.89;31.13
72772;SHT30;60894;42.544;1.516;2023-03-05T09:59:02;7.21;30.27
72772;SHT30;60894;42.544;1.516;2023-03-05T10:01:34;7.26;29.55
72772;SHT30;60894;42.544;1.516;2023-03-05T10:04:09;7.20;29.95
72772;SHT30;60894;42.544;1.516;2023-03-05T10:06:41;7.34;29.69
72772;SHT30;60894;42.544;1.516;2023-03-05T10:09:14;7.46;30.06
72772;SHT30;60894;42.544;1.516;2023-03-05T10:11:49;7.48;29.29
72772;SHT30;60894;42.544;1.516;2023-03-05T10:14:24;7.74;29.08
72772;SHT30;60894;42.544;1.516;2023-03-05T10:17:09;7.95;27.96
72772;SHT30;60894;42.544;1.516;2023-03-05T10:20:23;8.20;26.49
72772;SHT30;60894;42.544;1.516;2023-03-05T10:23:04;8.53;26.41
72772;SHT30;60894;42.544;1.516;2023-03-05T10:25:47;8.80;25.72
72772;SHT30;60894;42.544;1.516;2023-03-05T10:28:17;9.15;30.47
72772;SHT30;60894;42.544;1.516;2023-03-05T10:31:03;9.50;25.90
72772;SHT30;60894;42.544;1.516;2023-03-05T10:33:36;9.72;25.27
72772;SHT30;60894;42.544;1.516;2023-03-05T10:42:08;10.44;24.60
72772;SHT30;60894;42.544;1.516;2023-03-05T10:44:39;10.63;23.94
72772;SHT30;60894;42.544;1.516;2023-03-05T10:47:14;10.49;24.68
72772;SHT30;60894;42.544;1.516;2023-03-05T10:49:47;11.30;34.09
72772;SHT30;60894;42.544;1.516;2023-03-05T10:52:18;11.63;24.69
72772;SHT30;60894;42.544;1.516;2023-03-05T10:54:48;11.99;23.49
72772;SHT30;60894;42.544;1.516;2023-03-05T10:57:17;11.96;22.43
72772;SHT30;60894;42.544;1.516;2023-03-05T10:59:47;10.82;22.80
72772;SHT30;60894;42.544;1.516;2023-03-05T11:02:15;10.54;23.29
72772;SHT30;60894;42.544;1.516;2023-03-05T11:04:42;11.03;24.07
72772;SHT30;60894;42.544;1.516;2023-03-05T11:07:36;11.65;23.43
72772;SHT30;60894;42.544;1.516;2023-03-05T11:10:14;11.60;23.53
72772;SHT30;60894;42.544;1.516;2023-03-05T11:12:42;11.77;22.98
72772;SHT30;60894;42.544;1.516;2023-03-05T11:15:25;11.33;22.36
72772;SHT30;60894;42.544;1.516;2023-03-05T11:18:14;10.55;23.00
72772;SHT30;60894;42.544;1.516;2023-03-05T11:20:42;10.52;23.70
72772;SHT30;60894;42.544;1.516;2023-03-05T11:23:12;10.37;23.60
72772;SHT30;60894;42.544;1.516;2023-03-05T11:25:59;10.69;23.98
72772;SHT30;60894;42.544;1.516;2023-03-05T11:28:29;11.04;23.67
72772;SHT30;60894;42.544;1.516;2023-03-05T11:31:00;11.33;23.88
72772;SHT30;60894;42.544;1.516;2023-03-05T11:33:27;11.38;23.48
72772;SHT30;60894;42.544;1.516;2023-03-05T11:38:57;10.56;24.42
72772;SHT30;60894;42.544;1.516;2023-03-05T11:41:28;10.62;24.45
72772;SHT30;60894;42.544;1.516;2023-03-05T11:43:58;10.69;24.13
72772;SHT30;60894;42.544;1.516;2023-03-05T11:46:29;10.72;24.29
72772;SHT30;60894;42.544;1.516;2023-03-05T11:48:58;10.88;23.30
72772;SHT30;60894;42.544;1.516;2023-03-05T11:51:38;11.26;23.53
72772;SHT30;60894;42.544;1.516;2023-03-05T11:54:13;11.44;22.87
72772;SHT30;60894;42.544;1.516;2023-03-05T11:56:45;11.54;21.69
72772;SHT30;60894;42.544;1.516;2023-03-05T11:59:15;11.68;21.56
72772;SHT30;60894;42.544;1.516;2023-03-05T12:01:45;12.08;22.00
72772;SHT30;60894;42.544;1.516;2023-03-05T12:04:14;12.33;20.91
72772;SHT30;60894;42.544;1.516;2023-03-05T12:06:43;12.36;19.74
72772;SHT30;60894;42.544;1.516;2023-03-05T12:09:20;12.95;19.15
72772;SHT30;60894;42.544;1.516;2023-03-05T12:11:52;13.42;18.40
72772;SHT30;60894;42.544;1.516;2023-03-05T12:14:26;14.36;17.51
72772;SHT30;60894;42.544;1.516;2023-03-05T12:16:59;14.49;16.97
72772;SHT30;60894;42.544;1.516;2023-03-05T12:19:39;14.77;17.23
72772;SHT30;60894;42.544;1.516;2023-03-05T12:22:16;14.21;17.87
72772;SHT30;60894;42.544;1.516;2023-03-05T12:24:45;14.14;18.16
72772;SHT30;60894;42.544;1.516;2023-03-05T12:27:15;14.37;18.89
72772;SHT30;60894;42.544;1.516;2023-03-05T12:29:45;14.24;19.38
72772;SHT30;60894;42.544;1.516;2023-03-05T12:35:28;14.30;20.33
72772;SHT30;60894;42.544;1.516;2023-03-05T12:38:01;14.30;20.27
72772;SHT30;60894;42.544;1.516;2023-03-05T12:40:30;14.57;20.13
72772;SHT30;60894;42.544;1.516;2023-03-05T12:43:00;13.97;20.23
72772;SHT30;60894;42.544;1.516;2023-03-05T12:45:38;14.51;20.15
72772;SHT30;60894;42.544;1.516;2023-03-05T12:48:42;14.57;19.70
72772;SHT30;60894;42.544;1.516;2023-03-05T12:51:13;14.77;19.40
72772;SHT30;60894;42.544;1.516;2023-03-05T12:53:40;15.15;19.87
72772;SHT30;60894;42.544;1.516;2023-03-05T12:56:16;14.40;19.62
72772;SHT30;60894;42.544;1.516;2023-03-05T12:58:47;14.63;19.70
72772;SHT30;60894;42.544;1.516;2023-03-05T13:01:27;14.88;19.76
72772;SHT30;60894;42.544;1.516;2023-03-05T13:03:57;15.66;19.18
72772;SHT30;60894;42.544;1.516;2023-03-05T13:06:27;15.33;19.08
72772;SHT30;60894;42.544;1.516;2023-03-05T13:08:56;15.77;18.80
72772;SHT30;60894;42.544;1.516;2023-03-05T13:11:26;15.42;18.63
72772;SHT30;60894;42.544;1.516;2023-03-05T13:13:54;15.32;19.03
72772;SHT30;60894;42.544;1.516;2023-03-05T13:16:24;15.63;19.09
72772;SHT30;60894;42.544;1.516;2023-03-05T13:18:55;15.60;18.67
72772;SHT30;60894;42.544;1.516;2023-03-05T13:21:24;15.47;19.22
72772;SHT30;60894;42.544;1.516;2023-03-05T13:23:53;15.80;19.06
72772;SHT30;60894;42.544;1.516;2023-03-05T13:26:26;15.53;18.94
72772;SHT30;60894;42.544;1.516;2023-03-05T13:29:08;15.83;18.56
72772;SHT30;60894;42.544;1.516;2023-03-05T13:31:40;15.64;18.95
72772;SHT30;60894;42.544;1.516;2023-03-05T13:34:13;15.56;19.46
72772;SHT30;60894;42.544;1.516;2023-03-05T13:36:46;15.43;19.78
72772;SHT30;60894;42.544;1.516;2023-03-05T13:39:20;15.54;19.92
72772;SHT30;60894;42.544;1.516;2023-03-05T13:42:00;15.58;20.14
72772;SHT30;60894;42.544;1.516;2023-03-05T13:44:28;15.57;19.76
72772;SHT30;60894;42.544;1.516;2023-03-05T13:47:07;15.71;20.21
72772;SHT30;60894;42.544;1.516;2023-03-05T13:49:34;15.36;20.25
72772;SHT30;60894;42.544;1.516;2023-03-05T13:52:01;15.49;20.96
72772;SHT30;60894;42.544;1.516;2023-03-05T13:54:28;15.06;20.59
72772;SHT30;60894;42.544;1.516;2023-03-05T13:56:58;15.06;20.65
72772;SHT30;60894;42.544;1.516;2023-03-05T13:59:27;15.33;20.62
72772;SHT30;60894;42.544;1.516;2023-03-05T14:01:58;15.49;20.47
72772;SHT30;60894;42.544;1.516;2023-03-05T14:04:27;15.61;19.85
72772;SHT30;60894;42.544;1.516;2023-03-05T14:06:57;15.39;20.12
72772;SHT30;60894;42.544;1.516;2023-03-05T14:09:26;15.30;19.91
72772;SHT30;60894;42.544;1.516;2023-03-05T14:11:56;15.02;20.47
72772;SHT30;60894;42.544;1.516;2023-03-05T14:14:26;15.27;20.49
72772;SHT30;60894;42.544;1.516;2023-03-05T14:16:53;15.50;20.23
72772;SHT30;60894;42.544;1.516;2023-03-05T14:19:34;15.33;20.55
72772;SHT30;60894;42.544;1.516;2023-03-05T14:22:03;15.76;20.60
72772;SHT30;60894;42.544;1.516;2023-03-05T14:24:31;15.78;20.57
72772;SHT30;60894;42.544;1.516;2023-03-05T14:27:00;15.13;21.31
72772;SHT30;60894;42.544;1.516;2023-03-05T14:29:32;15.50;20.69
72772;SHT30;60894;42.544;1.516;2023-03-05T14:32:02;15.43;20.86
72772;SHT30;60894;42.544;1.516;2023-03-05T14:34:32;15.37;20.93
72772;SHT30;60894;42.544;1.516;2023-03-05T14:37:02;15.90;20.78
72772;SHT30;60894;42.544;1.516;2023-03-05T14:39:35;15.78;21.16
72772;SHT30;60894;42.544;1.516;2023-03-05T14:42:29;15.56;21.84
72772;SHT30;60894;42.544;1.516;2023-03-05T14:44:59;15.77;22.02
72772;SHT30;60894;42.544;1.516;2023-03-05T14:47:27;15.73;21.93
72772;SHT30;60894;42.544;1.516;2023-03-05T14:49:54;15.67;22.02
72772;SHT30;60894;42.544;1.516;2023-03-05T14:52:22;15.81;22.01
72772;SHT30;60894;42.544;1.516;2023-03-05T14:54:51;15.27;22.58
72772;SHT30;60894;42.544;1.516;2023-03-05T14:57:20;15.57;22.40
72772;SHT30;60894;42.544;1.516;2023-03-05T14:59:47;15.57;22.24
72772;SHT30;60894;42.544;1.516;2023-03-05T15:02:18;15.66;22.27
72772;SHT30;60894;42.544;1.516;2023-03-05T15:04:45;15.57;22.30
72772;SHT30;60894;42.544;1.516;2023-03-05T15:07:17;15.43;22.24
72772;SHT30;60894;42.544;1.516;2023-03-05T15:09:45;15.05;23.08
72772;SHT30;60894;42.544;1.516;2023-03-05T15:12:14;15.05;23.27
72772;SHT30;60894;42.544;1.516;2023-03-05T15:14:41;15.23;23.02
72772;SHT30;60894;42.544;1.516;2023-03-05T15:17:20;15.40;23.05
72772;SHT30;60894;42.544;1.516;2023-03-05T15:19:48;15.42;23.26
72772;SHT30;60894;42.544;1.516;2023-03-05T15:22:15;15.84;22.87
72772;SHT30;60894;42.544;1.516;2023-03-05T15:24:42;15.58;23.16
72772;SHT30;60894;42.544;1.516;2023-03-05T15:27:09;15.02;24.10
72772;SHT30;60894;42.544;1.516;2023-03-05T15:29:36;14.82;24.43
72772;SHT30;60894;42.544;1.516;2023-03-05T15:32:04;14.81;24.47
72772;SHT30;60894;42.544;1.516;2023-03-05T15:34:33;14.86;24.24
72772;SHT30;60894;42.544;1.516;2023-03-05T15:37:00;14.75;25.08
72772;SHT30;60894;42.544;1.516;2023-03-05T15:39:27;15.03;25.51
72772;SHT30;60894;42.544;1.516;2023-03-05T15:41:54;15.13;24.33
72772;SHT30;60894;42.544;1.516;2023-03-05T15:44:24;14.95;25.05
72772;SHT30;60894;42.544;1.516;2023-03-05T15:46:52;13.99;26.36
72772;SHT30;60894;42.544;1.516;2023-03-05T15:49:21;13.48;27.72
72772;SHT30;60894;42.544;1.516;2023-03-05T15:51:50;13.10;28.43
72772;SHT30;60894;42.544;1.516;2023-03-05T15:54:17;12.53;29.86
72772;SHT30;60894;42.544;1.516;2023-03-05T15:56:44;12.35;30.37
72772;SHT30;60894;42.544;1.516;2023-03-05T15:59:15;12.21;30.76
72772;SHT30;60894;42.544;1.516;2023-03-05T16:01:45;11.86;31.50